createdAt,value
2017-12-17T00:01:49.416Z,62.80
2017-12-17T00:04:16.860Z,63.00
2017-12-17T00:06:45.078Z,63.00
2017-12-17T00:09:12.538Z,63.10
2017-12-17T00:11:41.889Z,63.30
2017-12-17T00:14:10.377Z,63.20
2017-12-17T00:16:38.978Z,63.20
2017-12-17T00:19:06.448Z,63.40
2017-12-17T00:21:33.925Z,63.60
2017-12-17T00:24:01.377Z,63.60
2017-12-17T00:26:28.822Z,63.40
2017-12-17T00:28:57.269Z,64.60
2017-12-17T00:31:25.473Z,63.50
2017-12-17T00:33:53.024Z,63.50
2017-12-17T00:36:20.462Z,63.20
2017-12-17T00:38:47.930Z,63.30
2017-12-17T00:41:15.377Z,63.10
2017-12-17T00:43:42.827Z,63.40
2017-12-17T00:46:11.070Z,63.60
2017-12-17T00:48:39.582Z,63.50
2017-12-17T00:51:07.805Z,63.40
2017-12-17T00:53:37.162Z,63.40
2017-12-17T00:56:05.382Z,63.40
2017-12-17T00:58:32.825Z,63.40
2017-12-17T01:01:00.308Z,63.40
2017-12-17T01:03:27.721Z,63.30
2017-12-17T01:05:55.165Z,63.50
2017-12-17T01:08:23.378Z,63.50
2017-12-17T01:10:50.829Z,63.40
2017-12-17T01:13:18.286Z,63.90
2017-12-17T01:15:45.738Z,63.60
2017-12-17T01:18:13.173Z,63.60
2017-12-17T01:20:41.390Z,63.20
2017-12-17T01:23:08.905Z,63.20
2017-12-17T01:25:37.118Z,63.30
2017-12-17T01:28:04.562Z,63.30
2017-12-17T01:30:32.005Z,63.40
2017-12-17T01:32:59.449Z,63.30
2017-12-17T01:35:26.898Z,63.40
2017-12-17T01:37:55.253Z,63.90
2017-12-17T01:40:22.693Z,64.30
2017-12-17T01:42:50.139Z,64.10
2017-12-17T01:45:17.685Z,63.80
2017-12-17T01:47:45.146Z,64.00
2017-12-17T01:50:12.606Z,64.10
2017-12-17T01:52:40.070Z,63.90
2017-12-17T01:55:07.551Z,64.70
2017-12-17T01:57:35.008Z,64.10
2017-12-17T02:00:02.450Z,63.90
2017-12-17T02:02:29.922Z,63.90
2017-12-17T02:04:57.362Z,63.70
2017-12-17T02:07:24.826Z,64.10
2017-12-17T02:09:52.257Z,64.20
2017-12-17T02:12:19.721Z,64.30
2017-12-17T02:14:47.156Z,64.10
2017-12-17T02:17:14.596Z,64.30
2017-12-17T02:19:42.818Z,63.90
2017-12-17T02:22:10.279Z,64.60
2017-12-17T02:24:37.733Z,63.90
2017-12-17T02:27:05.176Z,63.70
2017-12-17T02:29:32.627Z,63.70
2017-12-17T02:32:00.069Z,63.60
2017-12-17T02:34:27.510Z,63.40
2017-12-17T02:36:55.718Z,64.00
2017-12-17T02:39:23.177Z,63.90
2017-12-17T02:41:50.613Z,64.10
2017-12-17T02:44:18.060Z,64.00
2017-12-17T02:46:46.263Z,64.10
2017-12-17T02:49:13.700Z,64.10
2017-12-17T02:51:41.147Z,64.30
2017-12-17T02:54:08.589Z,64.10
2017-12-17T02:56:36.834Z,64.10
2017-12-17T02:59:04.284Z,64.10
2017-12-17T03:01:31.727Z,64.10
2017-12-17T03:03:59.188Z,63.90
2017-12-17T03:06:26.628Z,63.90
2017-12-17T03:08:54.061Z,63.80
2017-12-17T03:11:22.281Z,63.60
2017-12-17T03:13:49.733Z,63.60
2017-12-17T03:16:17.194Z,63.40
2017-12-17T03:18:44.639Z,63.50
2017-12-17T03:21:12.077Z,63.60
2017-12-17T03:23:39.525Z,63.80
2017-12-17T03:26:06.977Z,63.80
2017-12-17T03:28:34.426Z,63.90
2017-12-17T03:31:02.645Z,63.90
2017-12-17T03:33:30.080Z,63.90
2017-12-17T03:35:58.297Z,63.60
2017-12-17T03:38:25.736Z,63.60
2017-12-17T03:40:53.195Z,63.40
2017-12-17T03:43:20.651Z,63.80
2017-12-17T03:45:48.084Z,63.80
2017-12-17T03:48:15.528Z,63.60
2017-12-17T03:50:42.969Z,63.80
2017-12-17T03:53:11.202Z,64.10
2017-12-17T03:55:38.675Z,64.10
2017-12-17T03:58:06.085Z,64.10
2017-12-17T04:00:34.302Z,64.40
2017-12-17T04:03:01.753Z,64.40
2017-12-17T04:05:29.201Z,64.50
2017-12-17T04:07:56.681Z,64.50
2017-12-17T04:10:24.134Z,64.30
2017-12-17T04:12:51.590Z,64.40
2017-12-17T04:15:19.041Z,64.70
2017-12-17T04:17:46.500Z,64.60
2017-12-17T04:20:13.947Z,64.30
2017-12-17T04:22:41.402Z,64.00
2017-12-17T04:25:08.850Z,64.20
2017-12-17T04:27:36.296Z,64.20
2017-12-17T04:30:04.509Z,64.20
2017-12-17T04:32:31.973Z,64.20
2017-12-17T04:34:59.430Z,64.40
2017-12-17T04:37:26.897Z,64.60
2017-12-17T04:39:54.346Z,64.90
2017-12-17T04:42:21.814Z,64.70
2017-12-17T04:44:49.257Z,64.50
2017-12-17T04:47:16.696Z,64.20
2017-12-17T04:49:44.152Z,64.50
2017-12-17T04:52:11.590Z,64.70
2017-12-17T04:54:39.056Z,64.70
2017-12-17T04:57:06.486Z,64.50
2017-12-17T04:59:33.929Z,64.40
2017-12-17T05:02:02.210Z,64.10
2017-12-17T05:04:30.422Z,64.30
2017-12-17T05:06:57.890Z,64.30
2017-12-17T05:09:25.337Z,64.90
2017-12-17T05:11:52.781Z,64.90
2017-12-17T05:14:20.221Z,64.80
2017-12-17T05:16:48.430Z,64.80
2017-12-17T05:19:15.900Z,64.80
2017-12-17T05:21:43.343Z,65.20
2017-12-17T05:24:10.785Z,65.30
2017-12-17T05:26:38.314Z,65.30
2017-12-17T05:29:05.757Z,65.30
2017-12-17T05:31:33.212Z,65.70
2017-12-17T05:34:00.665Z,65.40
2017-12-17T05:36:28.132Z,64.90
2017-12-17T05:38:55.566Z,65.30
2017-12-17T05:41:23.020Z,65.30
2017-12-17T05:43:50.464Z,65.10
2017-12-17T05:46:18.817Z,64.90
2017-12-17T05:48:46.250Z,64.80
2017-12-17T05:51:14.468Z,65.80
2017-12-17T05:53:41.910Z,65.00
2017-12-17T05:56:09.349Z,65.00
2017-12-17T05:58:36.792Z,64.90
2017-12-17T06:01:05.022Z,65.00
2017-12-17T06:03:32.473Z,65.00
2017-12-17T06:05:59.930Z,64.90
2017-12-17T06:08:27.393Z,65.20
2017-12-17T06:10:54.837Z,65.10
2017-12-17T06:13:22.292Z,65.20
2017-12-17T06:15:49.740Z,65.40
2017-12-17T06:18:17.182Z,65.00
2017-12-17T06:20:45.387Z,65.00
2017-12-17T06:23:12.846Z,64.90
2017-12-17T06:25:40.295Z,65.10
2017-12-17T06:28:07.737Z,65.30
2017-12-17T06:30:35.180Z,64.70
2017-12-17T06:33:02.625Z,64.90
2017-12-17T06:35:30.825Z,64.70
2017-12-17T06:37:59.049Z,64.70
2017-12-17T06:40:26.490Z,65.30
2017-12-17T06:42:53.941Z,65.00
2017-12-17T06:45:21.376Z,64.50
2017-12-17T06:47:48.821Z,64.40
2017-12-17T06:50:16.261Z,64.60
2017-12-17T06:52:44.478Z,64.80
2017-12-17T06:55:11.977Z,64.80
2017-12-17T06:57:39.423Z,65.00
2017-12-17T07:00:06.877Z,65.10
2017-12-17T07:02:34.317Z,65.20
2017-12-17T07:05:01.769Z,65.00
2017-12-17T07:07:29.209Z,64.60
2017-12-17T07:09:56.698Z,64.90
2017-12-17T07:12:24.147Z,64.70
2017-12-17T07:14:51.595Z,64.40
2017-12-17T07:17:19.034Z,64.30
2017-12-17T07:25:28.889Z,64.40
2017-12-17T07:27:57.099Z,64.70
2017-12-17T07:30:24.546Z,64.70
2017-12-17T07:32:51.988Z,64.80
2017-12-17T07:35:20.213Z,64.50
2017-12-17T07:37:47.662Z,64.40
2017-12-17T07:40:15.112Z,64.30
2017-12-17T07:42:42.567Z,64.60
2017-12-17T07:45:10.582Z,64.60
2017-12-17T07:47:38.038Z,64.10
2017-12-17T07:50:05.477Z,63.90
2017-12-17T07:52:32.933Z,63.80
2017-12-17T07:55:00.382Z,63.80
2017-12-17T07:57:27.834Z,63.70
2017-12-17T07:59:55.272Z,63.60
2017-12-17T08:02:22.750Z,63.60
2017-12-17T08:04:50.201Z,63.90
2017-12-17T08:07:17.670Z,63.50
2017-12-17T08:09:45.113Z,63.20
2017-12-17T08:12:12.568Z,63.10
2017-12-17T08:14:40.009Z,63.10
2017-12-17T08:17:07.461Z,63.10
2017-12-17T08:19:35.677Z,62.70
2017-12-17T08:22:03.133Z,62.90
2017-12-17T08:24:30.577Z,63.00
2017-12-17T08:26:58.048Z,63.00
2017-12-17T08:29:25.498Z,62.80
2017-12-17T08:31:52.929Z,62.00
2017-12-17T08:34:20.382Z,62.30
2017-12-17T08:36:47.825Z,62.60
2017-12-17T08:39:15.273Z,62.90
2017-12-17T08:41:43.490Z,62.60
2017-12-17T08:44:10.945Z,62.60
2017-12-17T08:46:38.383Z,62.20
2017-12-17T08:49:06.593Z,62.50
2017-12-17T08:51:34.045Z,62.40
2017-12-17T08:54:01.503Z,62.30
2017-12-17T08:56:28.944Z,62.40
2017-12-17T08:58:56.405Z,62.80
2017-12-17T09:01:23.846Z,63.10
2017-12-17T09:03:51.297Z,63.20
2017-12-17T09:06:18.732Z,63.70
2017-12-17T09:08:46.962Z,63.00
2017-12-17T09:11:14.397Z,63.00
2017-12-17T09:13:41.846Z,63.10
2017-12-17T09:16:10.061Z,63.20
2017-12-17T09:18:37.530Z,63.20
2017-12-17T09:21:04.974Z,63.00
2017-12-17T09:23:32.416Z,62.50
2017-12-17T09:25:59.873Z,62.10
2017-12-17T09:28:27.313Z,62.40
2017-12-17T09:30:54.761Z,62.70
2017-12-17T09:33:22.974Z,62.40
2017-12-17T09:35:50.422Z,62.40
2017-12-17T09:38:17.883Z,62.40
2017-12-17T09:40:45.337Z,61.90
2017-12-17T09:43:12.785Z,62.00
2017-12-17T09:45:40.241Z,62.30
2017-12-17T09:48:07.679Z,62.00
2017-12-17T09:50:35.892Z,62.50
2017-12-17T09:53:03.337Z,62.60
2017-12-17T09:55:30.800Z,62.40
2017-12-17T09:57:58.253Z,61.90
2017-12-17T10:00:25.709Z,61.70
2017-12-17T10:02:53.153Z,61.50
2017-12-17T10:05:20.602Z,62.00
2017-12-17T10:07:48.041Z,61.80
2017-12-17T10:10:16.277Z,60.90
2017-12-17T10:12:43.736Z,60.80
2017-12-17T10:15:11.194Z,61.10
2017-12-17T10:17:38.654Z,60.40
2017-12-17T10:20:06.094Z,60.70
2017-12-17T10:22:33.543Z,60.40
2017-12-17T10:25:00.994Z,60.20
2017-12-17T10:27:28.450Z,59.80
2017-12-17T10:29:55.904Z,59.00
2017-12-17T10:32:23.365Z,59.10
2017-12-17T10:34:50.825Z,57.80
2017-12-17T10:37:18.306Z,57.10
2017-12-17T10:39:45.761Z,56.30
2017-12-17T10:42:13.219Z,55.70
2017-12-17T10:44:40.673Z,55.60
2017-12-17T10:47:08.130Z,55.00
2017-12-17T10:49:35.580Z,54.70
2017-12-17T10:52:03.028Z,54.70
2017-12-17T10:54:30.499Z,54.30
2017-12-17T10:56:57.949Z,54.00
2017-12-17T10:59:25.425Z,53.80
2017-12-17T11:01:52.880Z,54.00
2017-12-17T11:04:20.340Z,53.70
2017-12-17T11:06:47.791Z,52.30
2017-12-17T11:09:15.249Z,50.50
2017-12-17T11:11:42.685Z,48.40
2017-12-17T11:14:10.164Z,47.60
2017-12-17T11:16:37.637Z,47.60
2017-12-17T11:19:05.089Z,44.00
2017-12-17T11:21:32.549Z,44.30
2017-12-17T11:24:00.011Z,45.30
2017-12-17T11:26:27.473Z,46.10
2017-12-17T11:28:55.702Z,45.60
2017-12-17T11:31:23.162Z,45.60
2017-12-17T11:33:50.629Z,43.30
2017-12-17T11:36:18.077Z,41.20
2017-12-17T11:38:45.545Z,40.20
2017-12-17T11:41:13.005Z,39.10
2017-12-17T11:43:40.490Z,38.60
2017-12-17T11:46:07.941Z,37.70
2017-12-17T11:48:35.397Z,37.30
2017-12-17T11:51:02.856Z,37.50
2017-12-17T11:53:30.303Z,39.90
2017-12-17T11:55:57.757Z,41.60
2017-12-17T11:58:25.209Z,42.80
2017-12-17T12:00:52.680Z,41.50
2017-12-17T12:03:20.129Z,39.60
2017-12-17T12:05:47.580Z,37.70
2017-12-17T12:08:15.029Z,36.60
2017-12-17T12:10:42.485Z,36.00
2017-12-17T12:13:09.935Z,34.70
2017-12-17T12:15:37.393Z,35.20
2017-12-17T12:18:04.853Z,35.00
2017-12-17T12:20:32.313Z,34.10
2017-12-17T12:22:59.761Z,33.20
2017-12-17T12:25:27.245Z,32.70
2017-12-17T12:27:54.700Z,32.20
2017-12-17T12:30:22.146Z,31.10
2017-12-17T12:32:49.629Z,31.80
2017-12-17T12:35:17.093Z,32.00
2017-12-17T12:37:44.559Z,33.10
2017-12-17T12:40:12.761Z,33.50
2017-12-17T12:42:40.984Z,32.50
2017-12-17T12:45:08.494Z,32.60
2017-12-17T12:47:36.770Z,31.10
2017-12-17T12:50:04.984Z,30.90
2017-12-17T12:52:32.437Z,30.80
2017-12-17T12:54:59.884Z,30.80
2017-12-17T12:57:27.341Z,31.40
2017-12-17T12:59:54.792Z,32.40
2017-12-17T13:02:22.277Z,34.20
2017-12-17T13:04:49.721Z,36.20
2017-12-17T13:07:17.168Z,38.50
2017-12-17T13:09:44.613Z,38.60
2017-12-17T13:12:12.070Z,39.80
2017-12-17T13:14:39.514Z,40.30
2017-12-17T13:17:07.730Z,42.30
2017-12-17T13:19:35.177Z,42.30
2017-12-17T13:22:02.631Z,43.20
2017-12-17T13:24:30.068Z,43.10
2017-12-17T13:26:57.528Z,43.10
2017-12-17T13:29:25.881Z,43.70
2017-12-17T13:31:54.103Z,43.70
2017-12-17T13:34:21.559Z,43.60
2017-12-17T13:36:49.085Z,44.20
2017-12-17T13:39:16.539Z,44.20
2017-12-17T13:41:44.761Z,43.60
2017-12-17T13:44:12.225Z,43.60
2017-12-17T13:46:39.677Z,43.80
2017-12-17T13:49:09.058Z,43.80
2017-12-17T13:51:36.515Z,44.60
2017-12-17T13:54:03.968Z,43.90
2017-12-17T13:56:31.415Z,43.30
2017-12-17T13:58:59.902Z,44.10
2017-12-17T14:01:27.346Z,45.70
2017-12-17T14:03:54.965Z,46.60
2017-12-17T14:06:22.413Z,46.90
2017-12-17T14:08:49.869Z,47.00
2017-12-17T14:11:17.326Z,48.30
2017-12-17T14:13:44.777Z,49.00
2017-12-17T14:16:12.990Z,49.90
2017-12-17T14:18:40.463Z,49.90
2017-12-17T14:21:07.914Z,50.50
2017-12-17T14:23:36.154Z,49.70
2017-12-17T14:26:04.496Z,50.20
2017-12-17T14:28:31.942Z,50.10
2017-12-17T14:31:00.150Z,51.90
2017-12-17T14:33:27.605Z,51.80
2017-12-17T14:35:55.052Z,52.60
2017-12-17T14:38:24.085Z,52.90
2017-12-17T14:40:51.526Z,54.30
2017-12-17T14:43:18.973Z,54.50
2017-12-17T14:45:46.432Z,54.60
2017-12-17T14:48:13.893Z,55.20
2017-12-17T14:50:41.337Z,55.70
2017-12-17T14:53:08.798Z,55.50
2017-12-17T14:55:37.242Z,55.50
2017-12-17T14:58:05.462Z,56.50
2017-12-17T15:00:32.916Z,55.90
2017-12-17T15:03:00.360Z,55.60
2017-12-17T15:05:27.815Z,55.70
2017-12-17T15:07:55.257Z,55.00
2017-12-17T15:10:22.706Z,55.90
2017-12-17T15:12:50.157Z,56.90
2017-12-17T15:15:17.601Z,57.20
2017-12-17T15:17:45.074Z,57.40
2017-12-17T15:20:12.526Z,57.50
2017-12-17T15:22:39.973Z,57.60
2017-12-17T15:25:08.198Z,56.90
2017-12-17T15:27:35.644Z,56.90
2017-12-17T15:30:03.109Z,56.40
2017-12-17T15:32:30.561Z,57.00
2017-12-17T15:34:58.025Z,57.20
2017-12-17T15:37:25.489Z,57.40
2017-12-17T15:39:52.938Z,57.10
2017-12-17T15:42:20.377Z,57.30
2017-12-17T15:44:47.829Z,57.40
2017-12-17T15:47:16.041Z,57.10
2017-12-17T15:49:43.492Z,57.10
2017-12-17T15:52:10.945Z,57.00
2017-12-17T15:54:38.397Z,57.20
2017-12-17T15:57:05.862Z,56.80
2017-12-17T15:59:33.309Z,56.60
2017-12-17T16:02:00.750Z,56.10
2017-12-17T16:04:28.214Z,56.80
2017-12-17T16:06:55.662Z,57.80
2017-12-17T16:09:23.869Z,58.20
2017-12-17T16:11:51.330Z,58.20
2017-12-17T16:14:18.777Z,57.60
2017-12-17T16:16:46.228Z,57.30
2017-12-17T16:19:13.671Z,57.80
2017-12-17T16:21:41.117Z,57.90
2017-12-17T16:24:08.689Z,57.80
2017-12-17T16:26:36.144Z,57.80
2017-12-17T16:29:03.585Z,58.00
2017-12-17T16:31:31.821Z,58.10
2017-12-17T16:33:59.270Z,58.00
2017-12-17T16:36:26.720Z,58.70
2017-12-17T16:38:54.182Z,58.10
2017-12-17T16:41:21.634Z,58.50
2017-12-17T16:43:49.081Z,58.60
2017-12-17T16:46:16.541Z,58.40
2017-12-17T16:48:44.001Z,58.40
2017-12-17T16:51:11.457Z,58.20
2017-12-17T16:53:38.881Z,58.80
2017-12-17T16:56:06.345Z,59.20
2017-12-17T16:58:33.790Z,59.40
2017-12-17T17:01:01.242Z,59.40
2017-12-17T17:03:29.461Z,59.70
2017-12-17T17:05:56.913Z,59.70
2017-12-17T17:08:24.366Z,59.40
2017-12-17T17:10:51.832Z,59.60
2017-12-17T17:13:19.289Z,59.60
2017-12-17T17:15:46.767Z,60.00
2017-12-17T17:18:14.221Z,59.60
2017-12-17T17:20:41.684Z,60.00
2017-12-17T17:23:09.129Z,59.40
2017-12-17T17:25:36.586Z,59.00
2017-12-17T17:28:04.050Z,59.60
2017-12-17T17:30:31.503Z,59.60
2017-12-17T17:32:58.965Z,59.40
2017-12-17T17:35:26.401Z,59.40
2017-12-17T17:37:53.863Z,59.10
2017-12-17T17:40:21.322Z,59.40
2017-12-17T17:42:48.854Z,59.40
2017-12-17T17:45:16.297Z,60.40
2017-12-17T17:47:44.574Z,60.50
2017-12-17T17:50:12.790Z,60.20
2017-12-17T17:52:40.251Z,60.10
2017-12-17T17:55:07.705Z,60.40
2017-12-17T17:57:35.237Z,60.30
2017-12-17T18:00:03.448Z,60.50
2017-12-17T18:02:30.912Z,60.50
2017-12-17T18:04:58.362Z,59.90
2017-12-17T18:07:25.822Z,59.70
2017-12-17T18:09:53.279Z,60.60
2017-12-17T18:12:20.730Z,60.30
2017-12-17T18:14:48.181Z,60.70
2017-12-17T18:17:15.647Z,60.40
2017-12-17T18:19:43.093Z,60.30
2017-12-17T18:22:10.547Z,59.30
2017-12-17T18:24:37.989Z,58.90
2017-12-17T18:27:05.443Z,59.80
2017-12-17T18:29:33.057Z,60.40
2017-12-17T18:32:00.513Z,60.00
2017-12-17T18:34:27.974Z,60.20
2017-12-17T18:36:55.418Z,60.30
2017-12-17T18:39:22.870Z,60.70
2017-12-17T18:41:50.305Z,60.50
2017-12-17T18:44:17.782Z,60.50
2017-12-17T18:46:45.225Z,60.20
2017-12-17T18:49:12.682Z,60.00
2017-12-17T18:51:40.136Z,59.90
2017-12-17T18:54:07.583Z,59.80
2017-12-17T18:56:35.025Z,60.10
2017-12-17T18:59:02.489Z,60.80
2017-12-17T19:01:29.929Z,60.70
2017-12-17T19:03:57.380Z,61.10
2017-12-17T19:06:24.830Z,60.60
2017-12-17T19:08:52.285Z,60.90
2017-12-17T19:11:21.234Z,60.40
2017-12-17T19:13:48.692Z,60.40
2017-12-17T19:16:17.181Z,61.20
2017-12-17T19:18:44.645Z,61.60
2017-12-17T19:21:12.102Z,61.50
2017-12-17T19:23:39.556Z,61.70
2017-12-17T19:26:07.002Z,61.90
2017-12-17T19:28:34.457Z,61.50
2017-12-17T19:31:01.917Z,61.30
2017-12-17T19:33:29.424Z,61.10
2017-12-17T19:35:57.652Z,61.20
2017-12-17T19:38:25.142Z,61.20
2017-12-17T19:40:53.359Z,60.80
2017-12-17T19:43:21.581Z,60.90
2017-12-17T19:45:49.044Z,61.00
2017-12-17T19:48:16.498Z,61.40
2017-12-17T19:50:44.753Z,61.40
2017-12-17T19:53:12.210Z,61.40
2017-12-17T19:55:39.684Z,60.40
2017-12-17T19:58:07.153Z,61.20
2017-12-17T20:00:34.655Z,61.60
2017-12-17T20:03:02.093Z,61.00
2017-12-17T20:05:30.334Z,61.60
2017-12-17T20:07:57.796Z,61.50
2017-12-17T20:10:25.273Z,61.60
2017-12-17T20:12:52.734Z,62.20
2017-12-17T20:15:20.188Z,63.00
2017-12-17T20:17:47.637Z,62.20
2017-12-17T20:20:15.094Z,62.40
2017-12-17T20:22:42.539Z,62.60
2017-12-17T20:25:10.211Z,62.90
2017-12-17T20:27:37.653Z,62.30
2017-12-17T20:30:05.121Z,62.70
2017-12-17T20:32:32.582Z,62.20
2017-12-17T20:35:00.034Z,61.40
2017-12-17T20:37:27.494Z,61.20
2017-12-17T20:39:54.968Z,61.30
2017-12-17T20:42:22.428Z,61.70
2017-12-17T20:44:49.886Z,61.70
2017-12-17T20:47:17.329Z,61.40
2017-12-17T20:49:44.785Z,61.20
2017-12-17T20:52:12.230Z,61.00
2017-12-17T20:54:39.685Z,60.40
2017-12-17T20:57:07.134Z,61.10
2017-12-17T20:59:34.585Z,60.90
2017-12-17T21:02:02.106Z,61.00
2017-12-17T21:04:30.335Z,61.30
2017-12-17T21:06:57.782Z,61.30
2017-12-17T21:09:25.248Z,61.30
2017-12-17T21:11:52.710Z,61.70
2017-12-17T21:14:20.164Z,62.00
2017-12-17T21:16:47.633Z,61.90
2017-12-17T21:19:15.077Z,62.00
2017-12-17T21:21:42.549Z,62.10
2017-12-17T21:24:09.997Z,62.30
2017-12-17T21:26:37.455Z,62.20
2017-12-17T21:29:04.958Z,62.30
2017-12-17T21:31:33.185Z,62.00
2017-12-17T21:34:00.645Z,62.00
2017-12-17T21:36:28.115Z,61.40
2017-12-17T21:38:55.574Z,61.30
2017-12-17T21:41:23.032Z,60.90
2017-12-17T21:43:50.492Z,61.60
2017-12-17T21:46:17.945Z,62.60
2017-12-17T21:48:45.391Z,62.90
2017-12-17T21:51:12.853Z,62.60
2017-12-17T21:53:40.302Z,62.90
2017-12-17T21:56:07.761Z,63.50
2017-12-17T21:58:35.204Z,62.70
2017-12-17T22:01:02.653Z,62.70
2017-12-17T22:03:30.984Z,62.40
2017-12-17T22:05:59.211Z,61.40
2017-12-17T22:08:26.658Z,61.20
2017-12-17T22:10:54.113Z,62.00
2017-12-17T22:13:21.569Z,62.00
2017-12-17T22:15:49.028Z,62.10
2017-12-17T22:18:16.489Z,62.50
2017-12-17T22:20:43.951Z,61.90
2017-12-17T22:23:11.405Z,60.80
2017-12-17T22:25:38.872Z,60.90
2017-12-17T22:28:06.343Z,60.70
2017-12-17T22:30:33.817Z,61.40
2017-12-17T22:33:01.270Z,61.70
2017-12-17T22:38:19.165Z,62.80
2017-12-17T22:40:46.643Z,62.70
2017-12-17T22:43:14.099Z,62.50
2017-12-17T22:45:41.566Z,62.30
2017-12-17T22:48:09.021Z,62.00
2017-12-17T22:50:36.494Z,62.00
2017-12-17T22:53:03.962Z,62.10
2017-12-17T22:55:31.403Z,61.90
2017-12-17T22:57:58.870Z,61.90
2017-12-17T23:00:26.321Z,61.80
2017-12-17T23:02:53.840Z,61.60
2017-12-17T23:05:21.290Z,61.90
2017-12-17T23:07:49.522Z,60.50
2017-12-17T23:10:16.966Z,60.50
2017-12-17T23:12:46.382Z,61.20
2017-12-17T23:15:13.829Z,61.80
2017-12-17T23:17:41.299Z,61.40
2017-12-17T23:20:08.746Z,61.40
2017-12-17T23:22:36.198Z,62.30
2017-12-17T23:25:03.646Z,62.50
2017-12-17T23:27:31.117Z,62.90
2017-12-17T23:29:58.570Z,62.60
2017-12-17T23:32:26.042Z,62.30
2017-12-17T23:34:53.526Z,63.10
2017-12-17T23:37:21.775Z,63.50
2017-12-17T23:39:53.173Z,63.30
2017-12-17T23:42:21.409Z,63.50
2017-12-17T23:44:48.877Z,63.40
2017-12-17T23:47:16.321Z,63.40
2017-12-17T23:49:43.778Z,64.10
2017-12-17T23:52:11.229Z,64.80
2017-12-17T23:54:38.685Z,65.10
2017-12-17T23:57:06.135Z,65.10
2017-12-17T23:59:33.601Z,64.40
